createdAt,value
2023-01-30T06:01:14.295Z,0.373
2023-01-30T06:11:31.974Z,0.747
2023-01-30T06:14:56.173Z,1.494
2023-01-30T06:17:34.402Z,2.241
2023-01-30T06:20:07.546Z,3.735
2023-01-30T06:22:56.053Z,5.976
2023-01-30T06:25:44.473Z,9.711
2023-01-30T06:28:17.613Z,14.566
2023-01-30T06:31:41.901Z,24.277
2023-01-30T06:34:20.125Z,28.386
2023-01-30T06:36:53.351Z,49.675
2023-01-30T06:39:31.705Z,61.627
2023-01-30T06:42:09.951Z,76.567
2023-01-30T06:44:43.160Z,77.314
2023-01-30T06:47:46.966Z,108.315
2023-01-30T06:50:25.276Z,109.809
2023-01-30T06:53:08.724Z,115.038
2023-01-30T06:56:02.250Z,132.966
2023-01-30T06:58:40.561Z,140.436
2023-01-30T07:01:13.712Z,151.641
2023-01-30T07:03:46.931Z,246.51
2023-01-30T07:06:30.303Z,366.03
2023-01-30T07:09:03.466Z,487.044
2023-01-30T07:12:02.161Z,570.708
2023-01-30T07:14:35.373Z,457.164
2023-01-30T07:17:13.564Z,490.032
2023-01-30T07:19:46.822Z,890.424
2023-01-30T07:22:25.133Z,884.448
2023-01-30T07:25:03.401Z,1069.704
2023-01-30T07:27:41.746Z,1368.504
2023-01-30T07:30:30.387Z,1344.6
2023-01-30T07:33:03.440Z,1440.216
2023-01-30T07:35:46.852Z,1553.76
2023-01-30T07:38:20.130Z,2007.936
2023-01-30T07:40:58.450Z,2103.552
2023-01-30T07:43:31.600Z,2127.456
2023-01-30T07:46:04.748Z,2079.648
2023-01-30T07:48:59.801Z,2605.536
2023-01-30T07:51:36.661Z,2055.744
2023-01-30T07:54:09.847Z,3227.04
2023-01-30T07:56:48.231Z,3609.504
2023-01-30T07:59:21.446Z,3729.024
2023-01-30T08:01:59.733Z,3083.616
2023-01-30T08:04:32.973Z,4207.104
2023-01-30T08:07:06.178Z,4900.32
2023-01-30T08:09:44.472Z,6262.848
2023-01-30T08:12:17.673Z,5545.728
2023-01-30T08:14:50.826Z,5976
2023-01-30T08:17:29.081Z,6549.696
2023-01-30T08:20:02.325Z,5641.344
2023-01-30T08:22:35.554Z,4589.568
2023-01-30T08:25:24.012Z,4039.776
2023-01-30T08:28:02.304Z,5282.784
2023-01-30T08:30:40.591Z,5617.44
2023-01-30T08:33:34.189Z,3047.76
2023-01-30T08:36:12.469Z,5976
2023-01-30T08:38:50.710Z,8222.976
2023-01-30T08:41:23.920Z,4948.128
2023-01-30T08:43:57.095Z,7601.472
2023-01-30T08:46:30.298Z,8366.4
2023-01-30T08:49:13.609Z,8940.096
2023-01-30T08:51:51.888Z,9991.872
2023-01-30T08:54:25.104Z,9131.328
2023-01-30T08:56:58.325Z,10183.104
2023-01-30T08:59:31.503Z,7601.472
2023-01-30T09:02:04.821Z,8222.976
2023-01-30T09:04:37.830Z,8701.056
2023-01-30T09:07:10.243Z,7888.32
2023-01-30T09:09:43.377Z,10326.528
2023-01-30T09:12:16.503Z,11091.456
2023-01-30T09:14:49.718Z,11569.536
2023-01-30T09:17:43.405Z,11330.496
2023-01-30T09:20:21.633Z,11999.808
2023-01-30T09:22:55.260Z,9944.064
2023-01-30T09:25:28.464Z,16924.032
2023-01-30T09:28:11.891Z,11617.344
2023-01-30T09:30:50.241Z,12095.424
2023-01-30T09:33:43.663Z,10326.528
2023-01-30T09:36:16.851Z,11282.688
2023-01-30T09:38:49.986Z,10183.104
2023-01-30T09:41:23.165Z,8701.056
2023-01-30T09:43:56.337Z,11952
2023-01-30T09:46:30.579Z,15872.256
2023-01-30T09:49:03.711Z,16924.032
2023-01-30T09:51:38.510Z,10708.992
2023-01-30T09:54:11.790Z,10613.376
2023-01-30T09:56:45.000Z,14724.864
2023-01-30T09:59:18.158Z,13386.24
2023-01-30T10:01:56.369Z,6932.16
2023-01-30T10:04:41.934Z,8844.48
2023-01-30T10:07:12.827Z,8940.096
2023-01-30T10:09:51.316Z,5952.096
2023-01-30T10:12:24.431Z,5617.44
2023-01-30T10:15:02.737Z,5211.072
2023-01-30T10:17:40.939Z,5163.264
2023-01-30T10:20:14.047Z,6119.424
2023-01-30T10:22:57.437Z,7123.392
2023-01-30T10:25:27.828Z,8127.36
2023-01-30T10:28:21.429Z,7219.008
2023-01-30T10:30:59.905Z,8892.288
2023-01-30T10:33:37.931Z,6310.656
2023-01-30T10:36:11.041Z,6119.424
2023-01-30T10:38:49.277Z,5760.864
2023-01-30T10:41:42.814Z,6501.888
2023-01-30T10:44:26.221Z,7697.088
2023-01-30T10:47:09.592Z,8175.168
2023-01-30T10:49:47.949Z,6693.12
2023-01-30T10:52:21.114Z,5330.592
2023-01-30T10:54:54.242Z,7362.432
2023-01-30T10:57:47.781Z,8557.632
2023-01-30T11:00:26.058Z,8748.864
2023-01-30T11:03:04.407Z,9657.216
2023-01-30T11:05:37.577Z,10183.104
2023-01-30T11:08:10.796Z,10422.144
2023-01-30T11:10:59.270Z,9322.56
2023-01-30T11:13:32.478Z,7601.472
2023-01-30T11:16:15.936Z,6119.424
2023-01-30T11:19:19.335Z,6023.808
2023-01-30T11:21:38.446Z,5330.592
2023-01-30T11:24:03.191Z,6454.08
2023-01-30T11:26:46.619Z,5665.248
2023-01-30T11:29:24.907Z,4087.584
2023-01-30T11:31:58.073Z,3752.928
2023-01-30T11:42:56.451Z,4087.584
2023-01-30T11:45:34.713Z,5402.304
2023-01-30T11:48:09.094Z,4398.336
2023-01-30T11:50:49.131Z,7601.472
2023-01-30T11:58:52.926Z,7983.936
2023-01-30T12:01:41.387Z,9035.712
2023-01-30T12:04:14.591Z,10613.376
2023-01-30T12:06:47.694Z,9513.792
2023-01-30T12:09:18.198Z,8366.4
2023-01-30T12:11:54.214Z,8509.824
2023-01-30T12:14:37.615Z,10852.416
2023-01-30T12:17:10.782Z,8414.208
2023-01-30T12:19:43.950Z,8605.44
2023-01-30T12:22:17.097Z,8987.904
2023-01-30T12:25:00.558Z,9848.448
2023-01-30T12:27:33.706Z,10230.912
2023-01-30T12:30:22.221Z,10469.952
2023-01-30T12:33:10.696Z,10613.376
2023-01-30T12:35:43.871Z,9752.832
2023-01-30T12:38:32.305Z,16254.72
2023-01-30T12:41:05.501Z,19410.048
2023-01-30T12:43:38.692Z,16637.184
2023-01-30T12:46:11.966Z,8892.288
2023-01-30T12:49:11.816Z,6884.352
2023-01-30T12:51:43.705Z,6215.04
2023-01-30T12:54:16.872Z,5999.904
2023-01-30T12:57:15.570Z,7601.472
2023-01-30T12:59:48.785Z,10087.488
2023-01-30T13:02:27.213Z,8796.672
2023-01-30T13:05:05.314Z,5689.152
2023-01-30T13:07:48.625Z,5784.768
2023-01-30T13:10:22.263Z,6454.08
2023-01-30T13:13:05.169Z,4350.528
2023-01-30T13:15:43.447Z,5139.36
2023-01-30T13:18:16.596Z,4685.184
2023-01-30T13:20:49.756Z,6119.424
2023-01-30T13:23:43.285Z,7123.392
2023-01-30T13:26:16.515Z,6884.352
2023-01-30T13:29:10.071Z,4231.008
2023-01-30T13:31:53.544Z,3059.712
2023-01-30T13:34:31.655Z,3035.808
2023-01-30T13:37:30.376Z,3848.544
2023-01-30T13:40:03.422Z,3991.968
2023-01-30T13:42:51.929Z,4159.296
2023-01-30T13:45:30.130Z,4111.488
2023-01-30T13:48:23.770Z,5450.112
2023-01-30T13:51:02.013Z,3944.16
2023-01-30T13:54:11.032Z,3227.04
2023-01-30T13:56:54.421Z,3322.656
2023-01-30T13:59:27.608Z,5497.92
2023-01-30T14:02:05.929Z,6501.888
2023-01-30T14:04:44.192Z,6454.08
2023-01-30T14:07:22.414Z,6884.352
2023-01-30T14:09:55.546Z,7027.776
2023-01-30T14:12:59.381Z,5043.744
2023-01-30T14:15:32.559Z,3657.312
2023-01-30T14:18:05.751Z,2486.016
2023-01-30T14:20:38.888Z,2976.048
2023-01-30T14:23:27.438Z,3179.232
2023-01-30T14:26:16.023Z,3729.024
2023-01-30T14:28:54.156Z,3776.832
2023-01-30T14:31:37.514Z,3083.616
2023-01-30T14:34:10.628Z,3023.856
2023-01-30T14:37:14.374Z,3274.848
2023-01-30T14:39:52.603Z,2677.248
2023-01-30T14:42:30.878Z,2581.632
2023-01-30T14:45:24.329Z,3489.984
2023-01-30T14:48:17.935Z,3131.424
2023-01-30T14:50:51.081Z,3035.808
2023-01-30T14:53:39.528Z,2187.216
2023-01-30T14:56:12.689Z,2282.832
2023-01-30T14:58:50.951Z,1673.28
2023-01-30T15:01:24.118Z,1284.84
2023-01-30T15:04:02.311Z,1111.536
2023-01-30T15:06:55.919Z,1093.608
2023-01-30T15:09:29.161Z,1051.776
2023-01-30T15:12:07.483Z,1577.664
2023-01-30T15:15:16.766Z,1625.472
2023-01-30T15:17:55.451Z,1362.528
2023-01-30T15:20:22.522Z,1219.104
2023-01-30T15:23:00.922Z,1009.944
2023-01-30T15:25:33.907Z,761.94
2023-01-30T15:28:07.065Z,612.54
2023-01-30T15:30:45.377Z,567.72
2023-01-30T15:33:33.861Z,322.704
2023-01-30T15:36:12.106Z,369.018
2023-01-30T15:38:45.257Z,374.994
2023-01-30T15:41:18.506Z,561.744
2023-01-30T15:43:56.673Z,717.12
2023-01-30T15:46:29.852Z,606.564
2023-01-30T15:49:02.999Z,388.44
2023-01-30T15:51:36.223Z,255.474
2023-01-30T15:54:09.396Z,192.726
2023-01-30T15:56:49.485Z,150.894
2023-01-30T15:59:20.870Z,100.098
2023-01-30T16:02:04.286Z,88.146
2023-01-30T16:04:37.378Z,75.447
2023-01-30T16:07:31.003Z,63.868
2023-01-30T16:10:07.471Z,52.29
2023-01-30T16:12:37.419Z,32.868
2023-01-30T16:17:43.856Z,15.687
2023-01-30T16:20:28.996Z,8.59
2023-01-30T16:23:02.223Z,7.096
2023-01-30T16:25:50.737Z,4.482
2023-01-30T16:29:09.894Z,2.241
2023-01-30T16:34:53.621Z,1.12
2023-01-30T16:40:35.808Z,0.373
2023-01-30T16:47:49.919Z,0
